Time;durP1;ratioP1;P1;durP2;ratioP2;P2;SDS_P1;SDS_P2;PMS_P1;PMS_P2;Temp;Humidity;BMP_temperature;BMP_pressure;BME280_temperature;BME280_humidity;BME280_pressure;Samples;Min_cycle;Max_cycle;Signal;HPM_P1;HPM_P2
2023/04/14 00:01:04;;;;;;;;;;;;;;;10.31;74.34;100623.48;107873;1256;73016;-82
2023/04/14 00:03:31;;;;;;;;;;;;;;;10.32;74.35;100625.27;108494;1256;124891;-82
2023/04/14 00:05:58;;;;;;;;;;;;;;;10.33;74.48;100628.60;107879;1257;61343;-82
2023/04/14 00:08:25;;;;;;;;;;;;;;;10.33;74.50;100625.98;107772;1259;72445;-81
2023/04/14 00:10:52;;;;;;;;;;;;;;;10.31;74.45;100626.83;107207;1255;124930;-81
2023/04/14 00:13:19;;;;;;;;;;;;;;;10.31;74.48;100627.88;107778;1256;70569;-81
2023/04/14 00:15:46;;;;;;;;;;;;;;;10.30;74.57;100627.67;107349;1254;270220;-81
2023/04/14 00:18:13;;;;;;;;;;;;;;;10.26;74.68;100623.50;108176;1254;58804;-81
2023/04/14 00:20:40;;;;;;;;;;;;;;;10.26;74.75;100621.75;107576;1259;124724;-81
2023/04/14 00:23:06;;;;;;;;;;;;;;;10.27;74.84;100623.54;107512;1256;67230;-81
2023/04/14 00:25:34;;;;;;;;;;;;;;;10.27;74.89;100618.79;107520;1256;71354;-81
2023/04/14 00:28:00;;;;;;;;;;;;;;;10.26;74.85;100620.86;107424;1259;125325;-81
2023/04/14 00:30:28;;;;;;;;;;;;;;;10.22;74.98;100621.48;107600;1255;60318;-79
2023/04/14 00:32:55;;;;;;;;;;;;;;;10.22;75.09;100622.17;107771;1254;125444;-80
2023/04/14 00:35:23;;;;;;;;;;;;;;;10.25;75.24;100624.34;108073;1255;64819;-80
2023/04/14 00:37:55;;;;;;;;;;;;;;;10.28;75.25;100624.96;108202;1257;71473;-81
2023/04/14 00:40:23;;;;;;;;;;;;;;;10.31;75.38;100624.02;108245;1256;125014;-81
2023/04/14 00:42:50;;;;;;;;;;;;;;;10.33;75.37;100623.89;107841;1254;60119;-81
2023/04/14 00:45:17;;;;;;;;;;;;;;;10.34;75.37;100626.17;107763;1256;124608;-81
2023/04/14 00:47:49;;;;;;;;;;;;;;;10.35;75.38;100626.39;107814;1255;66769;-81
2023/04/14 00:50:17;;;;;;;;;;;;;;;10.35;75.41;100624.61;107605;1254;71510;-81
2023/04/14 00:52:45;;;;;;;;;;;;;;;10.33;75.44;100622.65;107567;1255;126215;-81
2023/04/14 00:55:12;;;;;;;;;;;;;;;10.32;75.56;100630.88;107842;1255;59507;-81
2023/04/14 00:57:39;;;;;;;;;;;;;;;10.29;75.62;100632.00;107710;1254;124528;-81
2023/04/14 01:00:07;;;;;;;;;;;;;;;10.28;75.63;100635.12;107859;1256;65300;-81
2023/04/14 01:02:34;;;;;;;;;;;;;;;10.27;75.71;100640.17;107709;1260;72770;-81
2023/04/14 01:05:01;;;;;;;;;;;;;;;10.26;75.70;100641.75;107785;1254;59241;-80
2023/04/14 01:07:28;;;;;;;;;;;;;;;10.25;75.79;100637.35;107659;1256;60527;-81
2023/04/14 01:09:56;;;;;;;;;;;;;;;10.22;75.80;100642.54;107605;1254;125406;-82
2023/04/14 01:12:35;;;;;;;;;;;;;;;10.21;75.94;100644.23;107703;1254;67089;-80
2023/04/14 01:15:05;;;;;;;;;;;;;;;10.19;75.98;100645.95;107470;1257;124883;-81
2023/04/14 01:17:41;;;;;;;;;;;;;;;10.17;75.94;100644.67;107466;1258;61360;-81
2023/04/14 01:20:10;;;;;;;;;;;;;;;10.15;76.18;100643.73;107951;1259;59753;-80
2023/04/14 01:22:38;;;;;;;;;;;;;;;10.15;76.28;100649.54;108070;1255;125428;-80
2023/04/14 01:25:24;;;;;;;;;;;;;;;10.15;76.20;100650.25;108116;1256;65733;-80
2023/04/14 01:27:54;;;;;;;;;;;;;;;10.12;76.35;100651.40;107779;1254;124685;-80
2023/04/14 01:30:31;;;;;;;;;;;;;;;10.12;76.46;100649.64;107876;1255;59586;-80
2023/04/14 01:32:59;;;;;;;;;;;;;;;10.15;76.57;100647.41;107820;1255;125430;-80
2023/04/14 01:35:30;;;;;;;;;;;;;;;10.14;76.51;100645.84;108103;1254;71727;-81
2023/04/14 01:37:58;;;;;;;;;;;;;;;10.18;76.59;100645.92;107881;1256;65592;-81
2023/04/14 01:40:26;;;;;;;;;;;;;;;10.18;76.59;100645.40;107796;1256;72592;-80
2023/04/14 01:42:58;;;;;;;;;;;;;;;10.17;76.60;100642.73;108022;1255;59613;-81
2023/04/14 01:45:30;;;;;;;;;;;;;;;10.16;76.70;100636.58;107886;1256;124700;-80
2023/04/14 01:47:57;;;;;;;;;;;;;;;10.19;76.82;100636.49;107955;1256;74044;-79
2023/04/14 01:50:24;;;;;;;;;;;;;;;10.23;76.82;100638.52;107822;1259;67074;-80
2023/04/14 01:52:53;;;;;;;;;;;;;;;10.25;76.79;100641.38;107849;1254;124564;-80
2023/04/14 01:55:21;;;;;;;;;;;;;;;10.24;76.78;100641.70;107999;1255;59636;-80
2023/04/14 01:57:48;;;;;;;;;;;;;;;10.19;76.67;100639.62;108172;1254;124793;-80
2023/04/14 02:00:16;;;;;;;;;;;;;;;10.14;76.81;100640.39;108988;1254;74212;-80
2023/04/14 02:02:43;;;;;;;;;;;;;;;10.11;76.90;100644.02;108864;1256;125085;-80
2023/04/14 02:05:12;;;;;;;;;;;;;;;10.10;76.86;100649.24;109000;1256;71382;-79
2023/04/14 02:07:39;;;;;;;;;;;;;;;10.09;76.95;100649.73;109085;1255;58523;-79
2023/04/14 02:10:09;;;;;;;;;;;;;;;10.04;76.94;100648.04;108881;1256;124493;-79
2023/04/14 02:12:38;;;;;;;;;;;;;;;9.98;76.99;100642.45;108879;1256;73412;-79
2023/04/14 02:15:05;;;;;;;;;;;;;;;9.94;77.16;100642.70;108745;1256;125141;-78
2023/04/14 02:17:32;;;;;;;;;;;;;;;9.94;77.32;100641.66;108904;1256;72757;-79
2023/04/14 02:20:00;;;;;;;;;;;;;;;9.90;77.47;100644.35;108938;1255;58525;-79
2023/04/14 02:22:27;;;;;;;;;;;;;;;9.90;77.50;100647.66;108873;1255;124678;-79
2023/04/14 02:24:54;;;;;;;;;;;;;;;9.88;77.59;100648.85;109014;1258;72560;-79
2023/04/14 02:27:41;;;;;;;;;;;;;;;9.86;77.57;100648.80;107720;1255;124709;-79
2023/04/14 02:30:10;;;;;;;;;;;;;;;9.84;77.66;100649.80;107709;1254;72759;-79
2023/04/14 02:32:38;;;;;;;;;;;;;;;9.82;77.77;100646.75;107709;1254;59660;-79
2023/04/14 02:35:07;;;;;;;;;;;;;;;9.78;77.80;100649.30;107507;1255;124994;-79
2023/04/14 02:37:38;;;;;;;;;;;;;;;9.77;78.04;100656.63;108865;1255;73440;-79
2023/04/14 02:40:25;;;;;;;;;;;;;;;9.78;78.06;100657.86;108856;1257;124772;-79
2023/04/14 02:42:55;;;;;;;;;;;;;;;9.78;78.16;100661.05;109020;1254;72864;-79
2023/04/14 02:45:22;;;;;;;;;;;;;;;9.76;78.14;100662.38;108848;1255;124831;-80
2023/04/14 02:47:51;;;;;;;;;;;;;;;9.73;78.23;100659.15;108829;1256;60185;-80
2023/04/14 02:50:18;;;;;;;;;;;;;;;9.73;78.32;100659.15;108907;1256;72631;-80
2023/04/14 02:52:50;;;;;;;;;;;;;;;9.75;78.38;100661.31;108787;1261;124803;-80
2023/04/14 02:55:18;;;;;;;;;;;;;;;9.78;78.43;100663.65;109046;1257;71835;-80
2023/04/14 02:57:49;;;;;;;;;;;;;;;9.77;78.41;100662.05;108910;1256;125059;-80
2023/04/14 03:00:16;;;;;;;;;;;;;;;9.78;78.45;100663.66;109037;1254;59604;-80
2023/04/14 03:02:45;;;;;;;;;;;;;;;9.80;78.58;100664.77;108858;1256;124458;-80
2023/04/14 03:05:12;;;;;;;;;;;;;;;9.84;78.69;100668.73;108929;1259;65153;-80
2023/04/14 03:07:40;;;;;;;;;;;;;;;9.88;78.64;100673.73;109045;1255;72450;-80
2023/04/14 03:10:08;;;;;;;;;;;;;;;9.91;78.56;100679.61;108833;1256;124801;-80
2023/04/14 03:12:35;;;;;;;;;;;;;;;9.91;78.49;100679.44;108811;1256;58611;-79
2023/04/14 03:15:02;;;;;;;;;;;;;;;9.95;78.65;100683.20;108753;1254;124748;-79
2023/04/14 03:17:31;;;;;;;;;;;;;;;9.96;78.58;100680.09;108920;1256;66697;-79
2023/04/14 03:19:59;;;;;;;;;;;;;;;9.97;78.78;100679.41;108903;1255;71723;-79
2023/04/14 03:22:27;;;;;;;;;;;;;;;9.99;78.66;100679.62;108847;1255;125076;-79
2023/04/14 03:24:57;;;;;;;;;;;;;;;10.00;78.66;100677.90;108931;1256;60976;-80
2023/04/14 03:27:29;;;;;;;;;;;;;;;10.01;78.70;100681.08;108949;1257;125281;-80
2023/04/14 03:29:57;;;;;;;;;;;;;;;9.99;78.67;100677.86;108940;1254;67378;-80
2023/04/14 03:32:25;;;;;;;;;;;;;;;9.95;78.68;100687.42;108942;1256;73146;-80
2023/04/14 03:34:53;;;;;;;;;;;;;;;9.96;78.82;100685.88;108796;1260;124534;-80
2023/04/14 03:37:21;;;;;;;;;;;;;;;9.97;78.82;100692.03;109046;1256;60132;-80
2023/04/14 03:39:49;;;;;;;;;;;;;;;9.95;78.87;100692.52;108951;1256;125224;-80
2023/04/14 03:42:18;;;;;;;;;;;;;;;9.97;78.93;100699.91;108957;1254;66958;-80
2023/04/14 03:44:48;;;;;;;;;;;;;;;9.95;78.98;100696.88;108897;1255;125122;-79
2023/04/14 03:47:17;;;;;;;;;;;;;;;9.94;79.10;100696.52;108944;1257;58444;-79
2023/04/14 03:49:45;;;;;;;;;;;;;;;9.98;79.20;100703.10;108867;1257;58572;-79
2023/04/14 03:52:14;;;;;;;;;;;;;;;10.01;79.21;100701.08;107735;1256;124677;-80
2023/04/14 03:54:41;;;;;;;;;;;;;;;10.01;79.07;100698.61;107715;1258;67173;-81
2023/04/14 03:57:16;;;;;;;;;;;;;;;10.01;79.16;100701.96;107664;1256;124750;-82
2023/04/14 03:59:43;;;;;;;;;;;;;;;10.02;79.23;100704.27;107666;1257;61376;-80
2023/04/14 04:02:10;;;;;;;;;;;;;;;10.04;79.21;100708.34;108974;1255;58770;-80
2023/04/14 04:04:37;;;;;;;;;;;;;;;10.11;79.49;100709.22;108712;1256;125121;-79
2023/04/14 04:07:04;;;;;;;;;;;;;;;10.31;79.86;100709.77;109012;1257;65652;-80
2023/04/14 04:09:31;;;;;;;;;;;;;;;10.54;79.82;100710.70;108820;1256;125328;-78
2023/04/14 04:11:58;;;;;;;;;;;;;;;10.80;79.69;100709.20;108887;1254;58590;-79
2023/04/14 04:14:26;;;;;;;;;;;;;;;10.96;79.27;100711.50;109057;1255;59163;-80
2023/04/14 04:16:53;;;;;;;;;;;;;;;10.95;78.53;100714.65;108804;1257;124716;-79
2023/04/14 04:19:20;;;;;;;;;;;;;;;10.84;78.22;100711.77;108979;1259;67261;-80
2023/04/14 04:21:48;;;;;;;;;;;;;;;10.71;77.99;100715.31;108695;1256;125044;-81
2023/04/14 04:24:16;;;;;;;;;;;;;;;10.65;78.28;100718.69;107647;1257;59597;-83
2023/04/14 04:26:42;;;;;;;;;;;;;;;10.65;78.36;100719.91;107608;1254;124702;-81
2023/04/14 04:29:09;;;;;;;;;;;;;;;10.71;78.38;100723.03;107656;1254;73872;-80
2023/04/14 04:31:36;;;;;;;;;;;;;;;10.79;78.65;100723.39;107570;1257;65672;-80
2023/04/14 04:34:03;;;;;;;;;;;;;;;10.90;78.58;100723.13;107946;1256;124915;-79
2023/04/14 04:36:30;;;;;;;;;;;;;;;10.99;78.47;100722.12;108042;1254;60571;-80
2023/04/14 04:38:57;;;;;;;;;;;;;;;11.21;78.75;100726.81;107776;1255;125119;-82
2023/04/14 04:41:25;;;;;;;;;;;;;;;11.71;79.29;100729.27;107638;1257;73903;-85
2023/04/14 04:43:53;;;;;;;;;;;;;;;12.22;78.88;100730.45;108092;1257;65848;-85
2023/04/14 04:46:20;;;;;;;;;;;;;;;12.78;78.58;100728.54;108018;1256;125342;-83
2023/04/14 04:48:50;;;;;;;;;;;;;;;13.35;77.92;100725.87;108375;1259;59693;-83
2023/04/14 04:51:18;;;;;;;;;;;;;;;14.10;77.57;100723.40;107828;1255;125372;-83
2023/04/14 04:53:45;;;;;;;;;;;;;;;14.97;76.92;100723.27;107837;1257;73649;-81
2023/04/14 04:56:12;;;;;;;;;;;;;;;15.79;75.77;100725.63;107972;1256;65763;-80
2023/04/14 04:58:39;;;;;;;;;;;;;;;16.48;74.30;100729.14;107863;1255;125734;-80
2023/04/14 05:01:08;;;;;;;;;;;;;;;17.13;73.17;100731.94;107985;1254;60534;-82
2023/04/14 05:03:35;;;;;;;;;;;;;;;17.67;71.96;100723.42;108008;1255;124701;-82
2023/04/14 05:06:02;;;;;;;;;;;;;;;17.83;70.39;100724.43;107810;1255;71937;-82
2023/04/14 05:08:29;;;;;;;;;;;;;;;17.85;69.42;100726.92;108913;1256;65838;-84
2023/04/14 05:10:56;;;;;;;;;;;;;;;18.02;69.06;100729.49;108995;1256;124465;-82
2023/04/14 05:13:24;;;;;;;;;;;;;;;18.01;68.41;100728.07;109087;1257;58247;-81
2023/04/14 05:15:51;;;;;;;;;;;;;;;17.86;67.32;100727.08;108921;1258;124297;-80
2023/04/14 05:18:18;;;;;;;;;;;;;;;17.56;66.68;100729.33;108937;1259;73881;-80
2023/04/14 05:20:45;;;;;;;;;;;;;;;17.14;66.37;100726.79;108178;1256;124681;-80
2023/04/14 05:23:12;;;;;;;;;;;;;;;16.69;66.19;100729.85;107875;1256;72796;-79
2023/04/14 05:25:39;;;;;;;;;;;;;;;16.21;66.20;100730.35;107698;1260;59611;-80
2023/04/14 05:28:07;;;;;;;;;;;;;;;15.72;66.15;100731.80;107789;1255;125154;-79
2023/04/14 05:30:34;;;;;;;;;;;;;;;15.32;66.52;100730.20;107971;1258;72856;-79
2023/04/14 05:33:01;;;;;;;;;;;;;;;15.03;66.91;100730.92;107906;1258;125518;-79
2023/04/14 05:35:28;;;;;;;;;;;;;;;14.79;67.25;100729.86;107883;1256;72725;-79
2023/04/14 05:37:55;;;;;;;;;;;;;;;14.62;67.60;100730.27;107968;1256;60613;-81
2023/04/14 05:40:22;;;;;;;;;;;;;;;14.55;67.94;100729.47;107687;1256;124323;-81
2023/04/14 05:42:50;;;;;;;;;;;;;;;14.46;68.15;100727.63;107470;1257;73904;-81
2023/04/14 05:45:18;;;;;;;;;;;;;;;14.37;68.21;100729.66;107539;1256;124660;-80
2023/04/14 05:47:45;;;;;;;;;;;;;;;14.26;68.52;100722.31;107693;1255;71633;-81
2023/04/14 05:50:12;;;;;;;;;;;;;;;14.14;68.33;100733.33;107702;1257;60173;-81
2023/04/14 05:52:39;;;;;;;;;;;;;;;13.96;68.52;100731.73;107583;1257;125040;-80
2023/04/14 05:55:06;;;;;;;;;;;;;;;13.93;68.86;100731.16;107968;1256;73870;-80
2023/04/14 05:57:33;;;;;;;;;;;;;;;13.82;68.94;100730.34;107724;1256;125429;-78
2023/04/14 06:00:00;;;;;;;;;;;;;;;13.76;69.24;100728.51;107943;1257;71367;-79
2023/04/14 06:02:27;;;;;;;;;;;;;;;13.71;69.28;100724.21;108168;1259;59911;-79
2023/04/14 06:04:55;;;;;;;;;;;;;;;13.68;69.50;100728.95;108014;1254;124774;-79
2023/04/14 06:07:23;;;;;;;;;;;;;;;13.73;69.80;100733.41;107839;1259;72827;-79
2023/04/14 06:09:50;;;;;;;;;;;;;;;13.79;69.69;100736.83;107568;1256;124535;-79
2023/04/14 06:12:17;;;;;;;;;;;;;;;13.81;69.83;100741.79;107708;1257;73125;-79
2023/04/14 06:14:44;;;;;;;;;;;;;;;13.84;69.77;100744.46;107685;1254;124712;-79
2023/04/14 06:17:11;;;;;;;;;;;;;;;13.86;69.65;100737.61;108028;1255;59841;-79
2023/04/14 06:19:38;;;;;;;;;;;;;;;13.87;69.76;100743.63;107810;1258;72273;-79
2023/04/14 06:22:05;;;;;;;;;;;;;;;13.90;69.77;100739.42;108824;1256;124028;-80
2023/04/14 06:24:33;;;;;;;;;;;;;;;14.00;69.95;100738.66;107523;1257;70432;-81
2023/04/14 06:27:02;;;;;;;;;;;;;;;14.11;69.87;100741.23;107667;1256;124584;-81
2023/04/14 06:29:30;;;;;;;;;;;;;;;14.16;69.49;100741.83;107731;1254;60410;-80
2023/04/14 06:31:59;;;;;;;;;;;;;;;14.25;69.64;100743.67;107779;1256;74412;-80
2023/04/14 06:34:26;;;;;;;;;;;;;;;14.41;69.63;100739.23;107661;1257;124266;-81
2023/04/14 06:36:55;;;;;;;;;;;;;;;14.44;69.29;100738.90;107623;1258;72565;-81
2023/04/14 06:39:22;;;;;;;;;;;;;;;14.40;69.05;100738.70;107458;1256;124188;-81
2023/04/14 06:41:49;;;;;;;;;;;;;;;14.32;68.95;100734.20;107892;1256;60329;-81
2023/04/14 06:44:16;;;;;;;;;;;;;;;14.33;69.08;100738.29;108345;1256;73859;-81
2023/04/14 06:46:43;;;;;;;;;;;;;;;14.39;68.98;100737.27;107999;1258;124095;-81
2023/04/14 06:49:10;;;;;;;;;;;;;;;14.37;68.96;100739.02;107759;1255;72549;-81
2023/04/14 06:51:38;;;;;;;;;;;;;;;14.45;69.07;100744.56;108042;1257;124492;-81
2023/04/14 06:54:05;;;;;;;;;;;;;;;14.52;68.82;100743.39;107767;1254;59050;-81
2023/04/14 06:56:33;;;;;;;;;;;;;;;14.54;68.86;100745.91;107689;1262;72989;-81
2023/04/14 06:59:01;;;;;;;;;;;;;;;14.76;68.97;100739.20;107618;1257;124942;-81
2023/04/14 07:01:28;;;;;;;;;;;;;;;14.85;68.52;100732.74;107884;1259;73219;-81
2023/04/14 07:03:55;;;;;;;;;;;;;;;14.83;68.36;100726.54;107891;1259;124442;-81
2023/04/14 07:06:23;;;;;;;;;;;;;;;14.97;68.61;100723.64;108042;1255;60451;-81
2023/04/14 07:08:50;;;;;;;;;;;;;;;15.11;68.22;100721.25;107838;1254;124631;-81
2023/04/14 07:11:17;;;;;;;;;;;;;;;15.09;67.88;100718.92;107942;1256;67081;-81
2023/04/14 07:13:44;;;;;;;;;;;;;;;15.06;67.79;100716.44;108877;1254;71578;-81
2023/04/14 07:16:11;;;;;;;;;;;;;;;15.06;67.87;100715.91;108838;1257;123877;-81
2023/04/14 07:18:39;;;;;;;;;;;;;;;15.05;67.70;100711.30;109038;1257;58815;-81
2023/04/14 07:21:06;;;;;;;;;;;;;;;14.96;67.49;100714.25;108161;1256;124930;-81
2023/04/14 07:23:33;;;;;;;;;;;;;;;14.90;67.52;100714.05;108011;1259;65775;-81
2023/04/14 07:26:01;;;;;;;;;;;;;;;14.77;67.42;100716.42;108101;1259;73129;-81
2023/04/14 07:28:28;;;;;;;;;;;;;;;14.58;67.30;100721.92;107775;1259;124570;-81
2023/04/14 07:30:59;;;;;;;;;;;;;;;14.37;67.60;100718.19;107658;1255;60495;-81
2023/04/14 07:33:29;;;;;;;;;;;;;;;14.34;68.14;100720.81;107617;1260;124391;-82
2023/04/14 07:35:59;;;;;;;;;;;;;;;14.32;68.03;100719.90;108175;1257;65888;-82
2023/04/14 07:38:27;;;;;;;;;;;;;;;14.13;68.15;100723.26;107825;1254;72413;-81
2023/04/14 07:40:54;;;;;;;;;;;;;;;14.11;68.45;100724.83;107885;1257;124240;-82
2023/04/14 07:43:22;;;;;;;;;;;;;;;14.06;68.43;100725.66;107953;1259;59218;-82
2023/04/14 07:45:48;;;;;;;;;;;;;;;13.93;68.27;100729.05;108163;1257;123783;-82
2023/04/14 07:48:20;;;;;;;;;;;;;;;13.82;68.72;100730.51;107802;1257;65474;-82
2023/04/14 07:50:48;;;;;;;;;;;;;;;13.84;68.95;100727.71;107276;1260;124831;-82
2023/04/14 07:53:15;;;;;;;;;;;;;;;13.93;69.29;100729.92;107532;1256;60436;-82
2023/04/14 07:55:42;;;;;;;;;;;;;;;14.13;69.41;100725.73;107794;1256;59879;-82
2023/04/14 07:58:10;;;;;;;;;;;;;;;14.26;69.25;100723.21;107794;1261;125557;-82
2023/04/14 08:00:37;;;;;;;;;;;;;;;14.32;68.95;100723.95;107886;1259;65852;-82
2023/04/14 08:03:04;;;;;;;;;;;;;;;14.45;69.26;100722.33;107755;1257;124257;-82
2023/04/14 08:05:31;;;;;;;;;;;;;;;14.67;69.16;100720.07;108050;1256;60543;-82
2023/04/14 08:07:58;;;;;;;;;;;;;;;14.79;68.79;100718.91;108128;1260;60528;-82
2023/04/14 08:10:25;;;;;;;;;;;;;;;14.82;68.64;100718.92;107985;1254;124616;-82
2023/04/14 08:12:52;;;;;;;;;;;;;;;14.91;68.82;100716.53;108037;1257;65438;-82
2023/04/14 08:15:19;;;;;;;;;;;;;;;15.15;69.03;100718.61;108577;1259;124377;-81
2023/04/14 08:17:46;;;;;;;;;;;;;;;15.47;68.95;100721.77;107971;1260;58808;-81
2023/04/14 08:20:13;;;;;;;;;;;;;;;15.59;68.26;100720.59;107646;1254;60685;-81
2023/04/14 08:22:42;;;;;;;;;;;;;;;15.52;67.90;100720.04;107386;1260;124598;-81
2023/04/14 08:25:11;;;;;;;;;;;;;;;15.40;67.74;100717.15;108002;1254;65940;-81
2023/04/14 08:27:38;;;;;;;;;;;;;;;15.35;67.86;100717.14;108026;1259;123904;-81
2023/04/14 08:30:06;;;;;;;;;;;;;;;15.28;67.65;100717.27;108275;1257;59793;-81
2023/04/14 08:32:33;;;;;;;;;;;;;;;15.23;67.68;100717.77;108402;1258;60713;-81
2023/04/14 08:35:00;;;;;;;;;;;;;;;15.21;67.96;100717.41;107941;1256;125016;-81
2023/04/14 08:37:27;;;;;;;;;;;;;;;15.24;67.86;100713.55;107681;1258;65976;-81
2023/04/14 08:39:57;;;;;;;;;;;;;;;15.25;68.00;100715.66;107614;1259;124459;-81
2023/04/14 08:42:24;;;;;;;;;;;;;;;15.27;68.00;100716.39;107781;1256;58737;-81
2023/04/14 08:44:54;;;;;;;;;;;;;;;15.32;68.05;100716.77;107551;1256;124090;-81
2023/04/14 08:47:21;;;;;;;;;;;;;;;15.32;67.82;100726.13;107717;1256;72590;-81
2023/04/14 08:49:55;;;;;;;;;;;;;;;15.35;67.85;100734.10;107779;1257;66090;-81
2023/04/14 08:52:23;;;;;;;;;;;;;;;15.37;67.82;100738.18;107803;1260;123985;-80
2023/04/14 08:54:50;;;;;;;;;;;;;;;15.48;67.94;100740.18;108179;1257;60322;-81
2023/04/14 08:57:17;;;;;;;;;;;;;;;15.62;67.65;100744.14;107938;1257;124558;-81
2023/04/14 08:59:44;;;;;;;;;;;;;;;15.74;67.65;100741.37;107942;1257;75291;-80
2023/04/14 09:02:12;;;;;;;;;;;;;;;15.93;67.73;100739.68;107831;1257;67047;-81
2023/04/14 09:04:39;;;;;;;;;;;;;;;16.08;67.25;100739.71;107757;1257;123894;-81
2023/04/14 09:07:06;;;;;;;;;;;;;;;16.16;67.10;100736.36;108059;1259;58909;-81
2023/04/14 09:09:33;;;;;;;;;;;;;;;16.15;66.73;100735.83;107934;1258;124294;-81
2023/04/14 09:12:02;;;;;;;;;;;;;;;16.13;66.68;100739.20;108031;1260;74305;-81
2023/04/14 09:14:29;;;;;;;;;;;;;;;16.17;66.61;100739.73;107954;1260;67129;-81
2023/04/14 09:16:56;;;;;;;;;;;;;;;16.36;66.70;100735.86;107726;1254;123982;-80
2023/04/14 09:19:23;;;;;;;;;;;;;;;16.61;66.47;100739.24;108015;1254;59077;-80
2023/04/14 09:21:50;;;;;;;;;;;;;;;16.78;66.42;100734.98;107587;1257;124830;-80
2023/04/14 09:24:22;;;;;;;;;;;;;;;16.77;65.45;100737.30;107811;1255;72596;-80
2023/04/14 09:26:49;;;;;;;;;;;;;;;16.30;64.53;100741.16;107602;1260;124306;-80
2023/04/14 09:29:16;;;;;;;;;;;;;;;15.90;64.80;100738.61;107726;1257;72683;-80
2023/04/14 09:31:43;;;;;;;;;;;;;;;15.61;65.00;100742.53;107729;1258;61440;-79
2023/04/14 09:34:14;;;;;;;;;;;;;;;15.23;64.84;100735.80;107865;1260;123941;-80
2023/04/14 09:36:41;;;;;;;;;;;;;;;14.96;65.41;100737.94;107801;1259;73897;-80
2023/04/14 09:39:17;;;;;;;;;;;;;;;14.86;65.77;100733.27;107799;1260;124181;-80
2023/04/14 09:41:47;;;;;;;;;;;;;;;14.75;65.84;100729.48;107915;1257;72756;-79
2023/04/14 09:44:14;;;;;;;;;;;;;;;14.65;66.18;100733.46;107982;1254;59041;-79
2023/04/14 09:46:56;;;;;;;;;;;;;;;14.68;66.59;100732.44;107871;1259;123778;-79
2023/04/14 09:49:24;;;;;;;;;;;;;;;14.80;66.61;100735.17;107937;1260;72557;-80
2023/04/14 09:52:01;;;;;;;;;;;;;;;14.91;66.62;100736.13;107776;1256;123968;-80
2023/04/14 09:54:28;;;;;;;;;;;;;;;15.08;66.63;100737.30;108762;1260;72492;-80
2023/04/14 09:56:55;;;;;;;;;;;;;;;15.32;66.71;100734.45;108819;1254;124640;-80
2023/04/14 09:59:32;;;;;;;;;;;;;;;15.54;66.48;100734.02;108989;1254;58633;-80
2023/04/14 10:02:02;;;;;;;;;;;;;;;15.68;66.10;100728.77;108891;1257;73882;-80
2023/04/14 10:04:30;;;;;;;;;;;;;;;15.65;65.88;100729.64;108924;1257;123845;-80
2023/04/14 10:06:57;;;;;;;;;;;;;;;15.62;65.86;100728.04;108975;1254;72048;-80
2023/04/14 10:09:27;;;;;;;;;;;;;;;15.49;65.60;100728.16;108955;1254;124996;-80
2023/04/14 10:12:14;;;;;;;;;;;;;;;15.29;65.55;100732.84;108608;1255;60147;-81
2023/04/14 10:14:41;;;;;;;;;;;;;;;15.14;65.68;100731.51;107662;1254;123855;-82
2023/04/14 10:17:09;;;;;;;;;;;;;;;15.09;65.98;100730.60;107719;1254;67302;-82
2023/04/14 10:19:37;;;;;;;;;;;;;;;15.14;66.12;100727.45;107925;1254;72944;-82
2023/04/14 10:22:04;;;;;;;;;;;;;;;15.07;65.75;100726.35;107828;1257;124347;-82
2023/04/14 10:24:32;;;;;;;;;;;;;;;14.83;65.50;100723.54;107643;1256;59393;-82
2023/04/14 10:27:02;;;;;;;;;;;;;;;14.65;65.96;100729.75;108365;1254;123950;-81
2023/04/14 10:29:29;;;;;;;;;;;;;;;14.54;65.98;100731.60;107664;1259;65777;-82
2023/04/14 10:32:09;;;;;;;;;;;;;;;14.54;66.45;100731.95;107656;1258;73017;-81
2023/04/14 10:34:39;;;;;;;;;;;;;;;14.72;66.57;100735.30;108792;1257;124634;-81
2023/04/14 10:37:13;;;;;;;;;;;;;;;14.74;66.39;100734.08;109117;1257;60399;-82
2023/04/14 10:39:41;;;;;;;;;;;;;;;14.85;66.56;100729.55;108888;1257;124416;-82
2023/04/14 10:42:08;;;;;;;;;;;;;;;14.95;66.31;100731.04;108952;1257;65560;-82
2023/04/14 10:44:35;;;;;;;;;;;;;;;14.96;66.24;100737.23;108929;1257;72811;-82
2023/04/14 10:47:06;;;;;;;;;;;;;;;15.02;66.19;100734.27;109024;1254;124451;-82
2023/04/14 10:49:33;;;;;;;;;;;;;;;15.16;66.27;100728.35;109027;1257;60136;-81
2023/04/14 10:52:01;;;;;;;;;;;;;;;15.27;65.86;100725.59;108935;1257;123934;-82
2023/04/14 10:54:50;;;;;;;;;;;;;;;15.36;65.97;100723.86;108899;1254;66192;-81
2023/04/14 10:57:19;;;;;;;;;;;;;;;15.55;65.91;100720.58;108865;1257;124539;-81
2023/04/14 10:59:46;;;;;;;;;;;;;;;15.72;65.82;100719.24;108143;1257;60416;-81
2023/04/14 11:02:30;;;;;;;;;;;;;;;15.90;65.66;100717.36;107516;1257;58511;-80
2023/04/14 11:05:10;;;;;;;;;;;;;;;16.17;65.87;100720.08;107524;1256;123544;-80
2023/04/14 11:07:39;;;;;;;;;;;;;;;16.46;65.43;100719.05;107936;1256;65845;-79
2023/04/14 11:10:18;;;;;;;;;;;;;;;16.56;65.03;100717.63;107833;1256;124035;-79
2023/04/14 11:12:45;;;;;;;;;;;;;;;16.56;64.75;100726.66;107769;1254;59759;-81
2023/04/14 11:15:13;;;;;;;;;;;;;;;16.60;64.75;100727.71;107666;1256;124323;-80
2023/04/14 11:17:41;;;;;;;;;;;;;;;16.70;64.67;100725.23;107822;1257;73898;-80
2023/04/14 11:20:15;;;;;;;;;;;;;;;16.74;64.12;100723.46;107772;1257;67063;-82
2023/04/14 11:22:44;;;;;;;;;;;;;;;16.79;63.77;100725.77;108877;1254;123753;-82
2023/04/14 11:25:15;;;;;;;;;;;;;;;16.83;63.49;100721.17;109024;1256;58570;-81
2023/04/14 11:27:42;;;;;;;;;;;;;;;16.96;63.38;100725.95;108789;1256;124342;-81
2023/04/14 11:30:15;;;;;;;;;;;;;;;17.08;63.15;100724.52;108904;1257;72297;-82
2023/04/14 11:32:52;;;;;;;;;;;;;;;17.17;62.85;100725.73;108604;1257;124307;-81
2023/04/14 11:35:20;;;;;;;;;;;;;;;17.07;62.26;100726.29;107700;1254;73808;-83
2023/04/14 11:37:47;;;;;;;;;;;;;;;16.85;62.05;100732.16;107722;1254;59669;-81
2023/04/14 11:40:14;;;;;;;;;;;;;;;16.60;61.97;100728.27;107875;1256;124522;-81
2023/04/14 11:42:47;;;;;;;;;;;;;;;16.43;62.18;100728.79;108875;1257;72596;-81
2023/04/14 11:45:14;;;;;;;;;;;;;;;16.36;62.23;100726.65;108199;1257;124767;-82
2023/04/14 11:48:00;;;;;;;;;;;;;;;16.28;62.11;100723.98;108171;1254;71359;-80
2023/04/14 11:50:29;;;;;;;;;;;;;;;16.12;62.23;100726.96;108188;1256;58671;-80
2023/04/14 11:52:58;;;;;;;;;;;;;;;16.02;62.23;100730.85;108103;1254;124331;-80
2023/04/14 11:55:26;;;;;;;;;;;;;;;15.91;62.20;100725.35;108296;1257;72320;-80
2023/04/14 11:57:53;;;;;;;;;;;;;;;15.79;62.20;100727.25;108298;1259;124265;-80
2023/04/14 12:00:20;;;;;;;;;;;;;;;15.65;62.30;100721.85;108988;1254;70260;-80
2023/04/14 12:02:48;;;;;;;;;;;;;;;15.56;62.48;100721.47;108790;1256;124403;-80
2023/04/14 12:05:24;;;;;;;;;;;;;;;15.52;62.69;100721.63;108963;1256;59982;-80
2023/04/14 12:07:56;;;;;;;;;;;;;;;15.50;62.72;100719.14;108829;1255;73170;-80
2023/04/14 12:10:23;;;;;;;;;;;;;;;15.45;62.76;100720.89;108958;1254;123906;-80
2023/04/14 12:13:11;;;;;;;;;;;;;;;15.30;62.67;100720.64;109021;1256;72379;-81
2023/04/14 12:15:38;;;;;;;;;;;;;;;15.20;62.85;100723.59;108607;1259;247751;-80
2023/04/14 12:18:06;;;;;;;;;;;;;;;15.22;63.00;100725.38;108769;1256;61094;-80
2023/04/14 12:20:52;;;;;;;;;;;;;;;15.24;63.02;100724.86;108879;1257;73733;-79
2023/04/14 12:23:19;;;;;;;;;;;;;;;15.28;63.04;100724.53;109006;1254;65434;-81
2023/04/14 12:25:50;;;;;;;;;;;;;;;15.38;62.88;100720.50;108981;1256;71404;-81
2023/04/14 12:28:17;;;;;;;;;;;;;;;15.58;62.78;100718.11;107811;1258;123970;-81
2023/04/14 12:30:51;;;;;;;;;;;;;;;15.74;62.64;100715.00;107867;1254;60411;-81